Time;durP1;ratioP1;P1;durP2;ratioP2;P2;SDS_P1;SDS_P2;PMS_P1;PMS_P2;Temp;Humidity;BMP_temperature;BMP_pressure;BME280_temperature;BME280_humidity;BME280_pressure;Samples;Min_cycle;Max_cycle;Signal;HPM_P1;HPM_P2
2021/08/06 00:00:26;;;;;;;10.18;4.95;;;16.50;99.90;;;;;;4223182;28;20732;-59
2021/08/06 00:02:27;;;;;;;11.80;4.80;;;16.50;99.90;;;;;;4222041;28;20027;-59
2021/08/06 00:04:28;;;;;;;9.68;5.25;;;16.50;99.90;;;;;;4223375;28;20484;-62
2021/08/06 00:06:29;;;;;;;5.75;3.53;;;16.50;99.90;;;;;;4222360;28;20040;-60
2021/08/06 00:08:30;;;;;;;8.27;4.15;;;16.60;99.90;;;;;;4223376;28;20104;-58
2021/08/06 00:10:32;;;;;;;7.05;3.38;;;16.60;99.90;;;;;;4222361;28;20763;-61
2021/08/06 00:12:33;;;;;;;7.95;4.65;;;16.60;99.90;;;;;;4222310;28;20040;-60
2021/08/06 00:14:35;;;;;;;9.40;3.33;;;16.60;99.90;;;;;;4222407;28;20430;-60
2021/08/06 00:16:36;;;;;;;7.15;4.60;;;16.60;99.90;;;;;;4222155;28;20434;-60
2021/08/06 00:18:37;;;;;;;7.88;3.97;;;16.60;99.90;;;;;;4223110;28;20073;-60
2021/08/06 00:20:38;;;;;;;9.93;5.35;;;16.60;99.90;;;;;;4222795;28;20043;-61
2021/08/06 00:22:39;;;;;;;13.32;6.10;;;16.60;99.90;;;;;;4221811;28;20521;-60
2021/08/06 00:24:41;;;;;;;9.70;5.70;;;16.60;99.90;;;;;;4227526;27;20096;-61
2021/08/06 00:26:42;;;;;;;11.10;5.90;;;16.60;99.90;;;;;;4240192;27;20043;-60
2021/08/06 00:28:44;;;;;;;7.95;5.43;;;16.60;99.90;;;;;;4238933;27;20027;-60
2021/08/06 00:30:46;;;;;;;8.35;6.32;;;16.60;99.90;;;;;;4240213;27;20072;-60
2021/08/06 00:32:47;;;;;;;8.32;4.78;;;16.60;99.90;;;;;;4238730;27;20475;-61
2021/08/06 00:34:48;;;;;;;10.55;5.60;;;16.60;99.90;;;;;;4239879;27;20023;-61
2021/08/06 00:36:49;;;;;;;14.90;6.70;;;16.60;99.90;;;;;;4238717;27;20031;-60
2021/08/06 00:38:50;;;;;;;7.30;5.03;;;16.60;99.90;;;;;;4239779;28;20143;-59
2021/08/06 00:40:52;;;;;;;11.38;5.43;;;16.60;99.90;;;;;;4238851;28;20023;-60
2021/08/06 00:42:53;;;;;;;6.25;4.70;;;16.70;99.90;;;;;;4230929;27;20036;-61
2021/08/06 00:44:55;;;;;;;12.32;7.90;;;16.70;99.90;;;;;;4222526;28;20031;-61
2021/08/06 00:46:56;;;;;;;13.05;8.52;;;16.70;99.90;;;;;;4221975;28;20043;-60
2021/08/06 00:48:58;;;;;;;16.55;12.13;;;16.70;99.90;;;;;;4222802;28;20524;-60
2021/08/06 00:51:00;;;;;;;15.70;9.45;;;16.70;99.90;;;;;;4221896;28;20043;-59
2021/08/06 00:53:01;;;;;;;15.75;10.73;;;16.60;99.90;;;;;;4223012;28;20035;-60
2021/08/06 00:55:06;;;;;;;12.75;7.05;;;16.60;99.90;;;;;;4221802;28;20032;-61
2021/08/06 00:57:12;;;;;;;11.65;4.72;;;16.60;99.90;;;;;;4222982;28;20055;-60
2021/08/06 00:59:13;;;;;;;9.88;6.82;;;16.60;99.90;;;;;;4227408;28;20119;-60
2021/08/06 01:01:14;;;;;;;9.93;6.05;;;16.60;99.90;;;;;;4238791;27;20084;-61
2021/08/06 01:03:20;;;;;;;10.18;5.30;;;16.60;99.90;;;;;;4238722;28;20080;-60
2021/08/06 01:05:29;;;;;;;10.82;4.90;;;16.50;99.90;;;;;;4239533;28;20498;-60
2021/08/06 01:08:05;;;;;;;9.98;6.05;;;16.50;99.90;;;;;;4236883;28;20039;-59
2021/08/06 01:10:10;;;;;;;9.05;4.30;;;16.50;99.90;;;;;;4239757;28;20015;-60
2021/08/06 01:12:27;;;;;;;6.80;4.30;;;16.50;99.90;;;;;;4237887;27;20031;-60
2021/08/06 01:14:29;;;;;;;12.38;4.88;;;16.40;99.90;;;;;;4238796;27;20051;-60
2021/08/06 01:16:33;;;;;;;9.18;4.45;;;16.40;99.90;;;;;;4238215;27;20538;-59
2021/08/06 01:18:38;;;;;;;11.00;4.45;;;16.40;99.90;;;;;;4238010;28;20038;-59
2021/08/06 01:20:42;;;;;;;7.57;5.13;;;16.30;99.90;;;;;;4238810;27;20043;-59
2021/08/06 01:22:49;;;;;;;9.05;4.60;;;16.20;99.90;;;;;;4238111;27;20107;-60
2021/08/06 01:25:13;;;;;;;8.27;4.57;;;16.10;99.90;;;;;;4238593;28;20092;-60
2021/08/06 01:27:15;;;;;;;7.60;5.35;;;16.10;99.90;;;;;;4238975;27;20167;-60
2021/08/06 01:29:17;;;;;;;11.25;5.10;;;16.20;99.90;;;;;;4238001;27;20072;-61
2021/08/06 01:31:28;;;;;;;12.88;4.85;;;16.10;99.90;;;;;;4239657;28;20061;-60
2021/08/06 01:33:29;;;;;;;7.78;4.38;;;16.10;99.90;;;;;;4237765;27;20039;-60
2021/08/06 01:35:30;;;;;;;7.00;4.90;;;16.00;99.90;;;;;;4238457;28;20080;-59
2021/08/06 01:37:31;;;;;;;10.82;4.80;;;16.00;99.90;;;;;;4237403;28;20448;-60
2021/08/06 01:39:32;;;;;;;10.02;5.07;;;16.10;99.90;;;;;;4239422;28;20428;-60
2021/08/06 01:41:46;;;;;;;9.63;5.13;;;16.20;99.90;;;;;;4238514;28;20483;-60
2021/08/06 01:44:04;;;;;;;9.73;5.00;;;16.30;99.90;;;;;;4238857;27;20088;-61
2021/08/06 01:46:16;;;;;;;18.92;6.85;;;16.20;99.90;;;;;;4240156;27;20067;-61
2021/08/06 01:48:22;;;;;;;15.80;6.07;;;16.10;99.90;;;;;;4242131;27;20104;-60
2021/08/06 01:50:28;;;;;;;8.90;6.15;;;16.10;99.90;;;;;;4241542;27;20043;-60
2021/08/06 01:52:39;;;;;;;5.75;4.60;;;16.20;99.90;;;;;;4242401;27;20031;-61
2021/08/06 01:54:42;;;;;;;10.93;5.20;;;16.20;99.90;;;;;;4241318;27;20089;-60
2021/08/06 01:56:44;;;;;;;13.00;6.15;;;16.20;99.90;;;;;;4242403;27;20076;-60
2021/08/06 01:58:52;;;;;;;11.18;5.38;;;16.20;99.90;;;;;;4241320;27;20035;-60
2021/08/06 02:00:53;;;;;;;8.00;5.78;;;16.30;99.90;;;;;;4241140;27;20031;-58
2021/08/06 02:02:54;;;;;;;6.68;5.38;;;16.40;99.90;;;;;;4240875;27;20027;-59
2021/08/06 02:04:56;;;;;;;11.57;5.88;;;16.40;99.90;;;;;;4240569;27;20088;-60
2021/08/06 02:06:57;;;;;;;7.63;5.25;;;16.40;99.90;;;;;;4241234;27;20380;-62
2021/08/06 02:08:59;;;;;;;12.50;5.75;;;16.50;99.90;;;;;;4239661;27;20143;-59
2021/08/06 02:11:00;;;;;;;10.40;5.20;;;16.50;99.90;;;;;;4241966;27;20061;-58
2021/08/06 02:13:02;;;;;;;6.05;4.57;;;16.50;99.90;;;;;;4241252;27;20027;-60
2021/08/06 02:15:04;;;;;;;9.43;4.90;;;16.60;99.90;;;;;;4241451;27;20043;-60
2021/08/06 02:17:05;;;;;;;8.73;5.05;;;16.60;99.90;;;;;;4240033;27;20109;-60
2021/08/06 02:19:08;;;;;;;6.57;4.18;;;16.60;99.90;;;;;;4242266;27;20528;-60
2021/08/06 02:21:16;;;;;;;5.03;4.22;;;16.60;99.90;;;;;;4240820;27;20039;-59
2021/08/06 02:23:18;;;;;;;8.88;4.55;;;16.60;99.90;;;;;;4241522;27;20100;-59
2021/08/06 02:25:21;;;;;;;10.80;4.55;;;16.60;99.90;;;;;;4238214;27;20047;-60
2021/08/06 02:27:23;;;;;;;10.57;4.55;;;16.70;99.90;;;;;;4241606;27;20073;-60
2021/08/06 02:29:28;;;;;;;11.15;5.47;;;16.80;99.90;;;;;;4222152;27;20420;-61
2021/08/06 02:31:30;;;;;;;7.30;5.50;;;16.80;99.90;;;;;;4224535;28;20035;-60
2021/08/06 02:33:32;;;;;;;7.25;5.15;;;16.80;99.90;;;;;;4224235;28;20031;-58
2021/08/06 02:35:33;;;;;;;9.18;4.82;;;16.80;99.90;;;;;;4224425;28;20032;-60
2021/08/06 02:37:39;;;;;;;9.27;5.50;;;16.80;99.90;;;;;;4223912;28;20429;-60
2021/08/06 02:39:40;;;;;;;10.80;4.93;;;16.80;99.90;;;;;;4223985;28;20024;-59
2021/08/06 02:41:42;;;;;;;11.30;4.97;;;16.80;99.90;;;;;;4223534;28;20379;-60
2021/08/06 02:43:43;;;;;;;9.25;5.05;;;16.80;99.90;;;;;;4237738;27;20467;-59
2021/08/06 02:45:49;;;;;;;11.70;4.70;;;16.70;99.90;;;;;;4240453;27;20054;-60
2021/08/06 02:47:51;;;;;;;9.82;5.18;;;16.80;99.90;;;;;;4240659;27;20490;-61
2021/08/06 02:49:52;;;;;;;10.35;4.82;;;16.70;99.90;;;;;;4240922;27;20035;-61
2021/08/06 02:51:53;;;;;;;9.32;4.40;;;16.70;99.90;;;;;;4240472;27;20569;-60
2021/08/06 02:53:54;;;;;;;6.93;3.90;;;16.60;99.90;;;;;;4241107;27;20035;-60
2021/08/06 02:55:55;;;;;;;6.38;4.32;;;16.60;99.90;;;;;;4239745;27;20441;-60
2021/08/06 02:57:56;;;;;;;7.20;3.92;;;16.60;99.90;;;;;;4231554;27;20073;-59
2021/08/06 02:59:58;;;;;;;9.60;4.65;;;16.60;99.90;;;;;;4222565;28;20112;-59
2021/08/06 03:01:59;;;;;;;5.35;3.90;;;16.60;99.90;;;;;;4222382;28;20040;-59
2021/08/06 03:04:00;;;;;;;8.40;4.00;;;16.60;99.90;;;;;;4223430;28;20031;-57
2021/08/06 03:06:01;;;;;;;6.30;3.83;;;16.60;99.90;;;;;;4224099;28;20048;-60
2021/08/06 03:08:02;;;;;;;5.30;3.60;;;16.60;99.90;;;;;;4223554;28;20024;-60
2021/08/06 03:10:05;;;;;;;4.97;3.33;;;16.60;99.90;;;;;;4223725;28;20032;-60
2021/08/06 03:12:06;;;;;;;4.82;3.85;;;16.60;99.90;;;;;;4223269;28;20088;-60
2021/08/06 03:14:07;;;;;;;7.82;4.18;;;16.70;99.90;;;;;;4222818;28;20043;-60
2021/08/06 03:16:08;;;;;;;7.63;4.13;;;16.70;99.90;;;;;;4223821;28;20381;-60
2021/08/06 03:18:11;;;;;;;7.47;3.25;;;16.80;99.90;;;;;;4223242;27;20027;-61
2021/08/06 03:20:15;;;;;;;10.23;4.60;;;16.80;99.90;;;;;;4224371;28;20089;-60
2021/08/06 03:22:17;;;;;;;6.72;4.70;;;16.80;99.90;;;;;;4224173;27;20096;-60
2021/08/06 03:24:18;;;;;;;7.30;4.35;;;16.80;99.90;;;;;;4223388;28;20503;-60
2021/08/06 03:26:19;;;;;;;6.60;4.18;;;16.80;99.90;;;;;;4222740;28;20040;-60
2021/08/06 03:28:20;;;;;;;5.30;4.03;;;16.80;99.90;;;;;;4223938;28;20060;-59
2021/08/06 03:30:21;;;;;;;10.07;4.10;;;16.90;99.90;;;;;;4222597;28;20124;-61
2021/08/06 03:32:22;;;;;;;6.20;3.90;;;17.10;99.90;;;;;;4223484;28;20097;-59
2021/08/06 03:34:23;;;;;;;11.90;4.82;;;17.20;99.90;;;;;;4222896;28;20552;-60
2021/08/06 03:36:24;;;;;;;8.05;3.63;;;17.40;99.90;;;;;;4223082;28;20069;-58
2021/08/06 03:38:26;;;;;;;10.32;4.28;;;17.70;99.90;;;;;;4223779;27;20039;-60
2021/08/06 03:40:27;;;;;;;8.45;4.10;;;17.90;99.90;;;;;;4223045;28;20444;-59
2021/08/06 03:42:28;;;;;;;7.55;3.80;;;18.10;99.90;;;;;;4223743;27;20035;-60
2021/08/06 03:44:29;;;;;;;7.68;4.28;;;18.30;99.90;;;;;;4222786;28;20540;-60
2021/08/06 03:46:30;;;;;;;12.07;4.80;;;18.70;99.90;;;;;;4222680;28;20093;-61
2021/08/06 03:48:31;;;;;;;7.68;3.90;;;19.10;99.90;;;;;;4222662;28;20035;-59
2021/08/06 03:50:33;;;;;;;6.07;3.03;;;19.60;99.90;;;;;;4223257;28;20029;-60
2021/08/06 03:52:34;;;;;;;6.25;2.92;;;20.00;99.90;;;;;;4222435;28;20023;-59
2021/08/06 03:54:36;;;;;;;5.70;3.25;;;20.50;99.90;;;;;;4222815;28;20092;-60
2021/08/06 03:56:37;;;;;;;5.20;3.08;;;21.00;99.90;;;;;;4221805;28;20534;-62
2021/08/06 03:58:38;;;;;;;6.25;2.97;;;21.30;99.90;;;;;;4221771;28;20039;-62
2021/08/06 04:00:39;;;;;;;4.45;2.60;;;21.60;99.90;;;;;;4221756;27;20077;-60
2021/08/06 04:02:42;;;;;;;4.53;2.92;;;22.00;99.90;;;;;;4232678;27;20027;-61
2021/08/06 04:04:43;;;;;;;6.45;3.13;;;22.30;99.90;;;;;;4221828;28;20072;-61
2021/08/06 04:06:44;;;;;;;4.95;2.58;;;22.50;99.90;;;;;;4214897;28;20044;-62
2021/08/06 04:08:45;;;;;;;6.57;3.78;;;22.80;99.90;;;;;;4204880;28;20153;-62
2021/08/06 04:10:46;;;;;;;8.48;3.08;;;23.00;99.90;;;;;;4205577;28;20040;-63
2021/08/06 04:12:50;;;;;;;9.48;3.20;;;23.20;99.90;;;;;;4205623;28;20418;-58
2021/08/06 04:14:51;;;;;;;7.70;2.88;;;23.30;99.90;;;;;;4205886;28;20054;-59
2021/08/06 04:16:54;;;;;;;6.30;2.53;;;23.70;99.90;;;;;;4205198;28;20056;-61
2021/08/06 04:18:55;;;;;;;7.00;3.13;;;24.00;99.90;;;;;;4205416;28;20042;-60
2021/08/06 04:20:57;;;;;;;3.75;2.40;;;24.20;99.90;;;;;;4206001;28;20044;-60
2021/08/06 04:22:58;;;;;;;8.63;3.67;;;24.40;99.90;;;;;;4222534;28;20057;-60
2021/08/06 04:25:00;;;;;;;9.50;2.50;;;24.90;99.90;;;;;;4222587;28;20088;-61
2021/08/06 04:27:02;;;;;;;8.40;3.70;;;24.50;99.90;;;;;;4220290;28;20052;-59
2021/08/06 04:29:03;;;;;;;9.32;3.28;;;24.20;99.90;;;;;;4222496;28;20031;-60
2021/08/06 04:31:05;;;;;;;11.25;3.28;;;23.40;99.90;;;;;;4221702;28;20496;-59
2021/08/06 04:33:06;;;;;;;13.55;4.70;;;22.70;99.90;;;;;;4222635;28;20500;-60
2021/08/06 04:35:08;;;;;;;7.03;4.28;;;22.00;99.90;;;;;;4221174;28;20028;-60
2021/08/06 04:37:09;;;;;;;12.32;3.60;;;21.60;99.90;;;;;;4236877;27;20543;-59
2021/08/06 04:39:10;;;;;;;8.65;3.78;;;21.40;99.90;;;;;;4221791;28;20061;-60
2021/08/06 04:41:11;;;;;;;8.18;4.28;;;21.10;99.90;;;;;;4222458;28;20088;-60
2021/08/06 04:43:12;;;;;;;5.55;3.75;;;21.00;99.90;;;;;;4222035;28;20089;-59
2021/08/06 04:45:14;;;;;;;5.72;3.38;;;21.10;99.90;;;;;;4222229;28;20039;-57
2021/08/06 04:47:15;;;;;;;9.32;3.38;;;21.30;99.90;;;;;;4221739;28;20065;-59
2021/08/06 04:49:16;;;;;;;9.10;3.50;;;21.40;99.90;;;;;;4221526;28;20040;-59
2021/08/06 04:51:17;;;;;;;10.38;3.30;;;21.20;99.90;;;;;;4222475;28;20081;-58
2021/08/06 04:53:19;;;;;;;6.18;3.22;;;21.20;99.90;;;;;;4222255;28;20136;-59
2021/08/06 04:55:20;;;;;;;7.10;3.60;;;21.30;99.90;;;;;;4221880;28;20029;-58
2021/08/06 04:57:21;;;;;;;8.85;3.22;;;21.60;99.90;;;;;;4221459;28;20069;-59
2021/08/06 04:59:22;;;;;;;6.60;3.35;;;21.80;99.90;;;;;;4223291;28;20774;-59
2021/08/06 05:01:23;;;;;;;7.15;2.90;;;22.00;99.90;;;;;;4237894;28;20088;-59
2021/08/06 05:03:24;;;;;;;7.45;3.30;;;22.10;99.90;;;;;;4239436;28;20095;-60
2021/08/06 05:05:26;;;;;;;4.10;3.20;;;22.70;99.90;;;;;;4238451;28;20031;-59
2021/08/06 05:07:27;;;;;;;6.40;3.65;;;23.00;99.90;;;;;;4236353;27;20092;-60
2021/08/06 05:09:28;;;;;;;6.25;3.53;;;23.30;99.90;;;;;;4234016;28;20635;-60
2021/08/06 05:11:29;;;;;;;8.93;3.63;;;23.90;99.90;;;;;;4221671;28;20036;-60
2021/08/06 05:13:30;;;;;;;11.18;4.15;;;24.40;99.90;;;;;;4221781;28;20065;-61
2021/08/06 05:15:32;;;;;;;9.63;4.65;;;24.60;99.90;;;;;;4221937;28;20487;-60
2021/08/06 05:17:33;;;;;;;5.72;4.43;;;24.70;99.90;;;;;;4221670;28;20032;-60
2021/08/06 05:19:34;;;;;;;9.73;4.18;;;24.60;99.90;;;;;;4221576;28;20135;-60
2021/08/06 05:21:35;;;;;;;8.55;3.80;;;24.70;99.90;;;;;;4225212;28;20031;-60
2021/08/06 05:23:36;;;;;;;6.07;3.17;;;24.70;99.90;;;;;;4224833;28;20388;-59
2021/08/06 05:25:37;;;;;;;5.15;2.70;;;24.70;99.90;;;;;;4225530;28;20097;-60
2021/08/06 05:27:39;;;;;;;8.60;3.00;;;25.00;99.90;;;;;;4224465;28;20039;-61
2021/08/06 05:29:40;;;;;;;5.82;2.50;;;25.30;99.90;;;;;;4225061;28;20480;-60
2021/08/06 05:31:41;;;;;;;6.72;2.83;;;26.10;99.90;;;;;;4224472;28;20035;-60
2021/08/06 05:33:42;;;;;;;7.20;2.50;;;26.40;99.90;;;;;;4225578;28;20031;-60
2021/08/06 05:35:43;;;;;;;5.35;3.15;;;26.50;99.50;;;;;;4223722;28;20036;-59
2021/08/06 05:37:45;;;;;;;4.97;2.25;;;26.90;99.10;;;;;;4225017;28;20077;-60
2021/08/06 05:39:46;;;;;;;4.70;1.95;;;27.10;98.70;;;;;;4223829;28;20454;-61
2021/08/06 05:41:48;;;;;;;3.95;2.00;;;28.00;98.00;;;;;;4224695;28;20024;-60
2021/08/06 05:43:49;;;;;;;3.03;1.60;;;28.60;96.80;;;;;;4223824;28;20429;-61
2021/08/06 05:45:50;;;;;;;5.13;2.03;;;28.40;96.50;;;;;;4224356;28;20868;-61
2021/08/06 05:47:53;;;;;;;3.42;1.88;;;28.20;96.40;;;;;;4223905;28;20044;-61
2021/08/06 05:49:54;;;;;;;2.30;2.00;;;28.20;96.30;;;;;;4223591;28;20043;-61
2021/08/06 05:51:55;;;;;;;2.67;1.92;;;27.80;96.20;;;;;;4224666;28;20072;-61
2021/08/06 05:53:56;;;;;;;2.70;1.85;;;27.40;96.10;;;;;;4223533;28;20040;-61
2021/08/06 05:55:59;;;;;;;2.15;0.98;;;26.70;96.00;;;;;;4224436;28;20040;-61
2021/08/06 05:58:00;;;;;;;3.50;0.65;;;26.30;95.90;;;;;;4223934;28;20019;-60
2021/08/06 06:00:03;;;;;;;3.42;0.90;;;25.90;95.80;;;;;;4223953;28;20352;-60
2021/08/06 06:02:04;;;;;;;4.10;0.90;;;25.30;96.00;;;;;;4223792;28;20352;-61
2021/08/06 06:04:05;;;;;;;5.93;0.98;;;24.60;96.10;;;;;;4224976;28;20471;-60
2021/08/06 06:06:07;;;;;;;4.07;0.93;;;24.20;96.40;;;;;;4223850;28;20313;-60
2021/08/06 06:08:08;;;;;;;4.22;1.88;;;24.30;96.30;;;;;;4224584;28;20012;-60
2021/08/06 06:10:10;;;;;;;3.65;1.83;;;24.30;96.20;;;;;;4223424;28;20088;-60
2021/08/06 06:12:11;;;;;;;6.53;3.85;;;23.80;96.40;;;;;;4224151;28;20128;-59
2021/08/06 06:14:14;;;;;;;5.63;3.33;;;22.70;99.30;;;;;;4223423;28;20039;-60
2021/08/06 06:16:15;;;;;;;8.40;4.07;;;21.80;99.90;;;;;;4224174;28;20069;-60
2021/08/06 06:18:17;;;;;;;10.10;3.70;;;21.00;99.90;;;;;;4223367;28;20039;-60
2021/08/06 06:20:18;;;;;;;7.90;3.63;;;20.70;99.90;;;;;;4223898;28;20372;-59
2021/08/06 06:22:19;;;;;;;5.65;3.75;;;20.10;99.90;;;;;;4224083;28;20128;-60
2021/08/06 06:24:21;;;;;;;4.65;3.38;;;19.80;99.90;;;;;;4223612;28;20089;-60
2021/08/06 06:26:22;;;;;;;10.20;3.65;;;19.50;99.90;;;;;;4223970;28;20092;-60
2021/08/06 06:28:23;;;;;;;5.45;3.30;;;19.50;99.90;;;;;;4223280;28;20057;-59
2021/08/06 06:30:27;;;;;;;4.75;2.80;;;19.60;99.90;;;;;;4224129;28;20072;-60
2021/08/06 06:32:28;;;;;;;6.55;3.08;;;19.80;99.90;;;;;;4223203;28;20069;-60
2021/08/06 06:34:30;;;;;;;4.90;2.55;;;19.90;99.90;;;;;;4223914;28;20041;-60
2021/08/06 06:36:31;;;;;;;12.35;2.67;;;19.90;99.90;;;;;;4228075;27;20068;-60
2021/08/06 06:38:32;;;;;;;7.05;2.83;;;20.00;99.90;;;;;;4241232;27;20052;-60
2021/08/06 06:40:33;;;;;;;3.65;2.42;;;20.10;99.90;;;;;;4239694;27;20573;-61
2021/08/06 06:42:34;;;;;;;4.25;2.40;;;20.30;99.90;;;;;;4221297;27;20070;-62
2021/08/06 06:44:35;;;;;;;8.30;2.03;;;20.60;99.90;;;;;;4236563;27;20084;-62
2021/08/06 06:46:36;;;;;;;5.00;2.20;;;21.10;99.90;;;;;;4233151;27;20056;-61
2021/08/06 06:48:38;;;;;;;7.03;2.25;;;21.50;99.90;;;;;;4221388;28;20495;-61
2021/08/06 06:50:39;;;;;;;4.32;2.03;;;21.90;99.90;;;;;;4223501;28;20889;-61
2021/08/06 06:52:42;;;;;;;2.90;1.17;;;22.40;99.90;;;;;;4224163;28;20031;-61
2021/08/06 06:54:43;;;;;;;3.45;1.20;;;22.70;99.90;;;;;;4223158;28;20051;-62
2021/08/06 06:56:44;;;;;;;5.07;1.42;;;22.90;99.90;;;;;;4226566;27;21075;-62
2021/08/06 06:58:45;;;;;;;1.05;0.85;;;23.40;99.90;;;;;;4240070;27;20512;-61
2021/08/06 07:00:46;;;;;;;2.25;0.73;;;24.20;99.90;;;;;;4241263;27;20031;-61
2021/08/06 07:02:48;;;;;;;1.73;0.80;;;24.80;99.20;;;;;;4240553;27;20031;-62
2021/08/06 07:04:50;;;;;;;2.95;0.50;;;25.10;97.70;;;;;;4241302;27;20035;-62
2021/08/06 07:06:51;;;;;;;1.15;0.40;;;25.70;96.70;;;;;;4240065;27;20913;-61
2021/08/06 07:08:52;;;;;;;0.65;0.20;;;26.30;95.40;;;;;;4241131;27;20059;-61
2021/08/06 07:10:53;;;;;;;2.95;0.20;;;27.00;94.30;;;;;;4240129;27;20039;-61
2021/08/06 07:12:55;;;;;;;2.28;0.20;;;27.30;93.00;;;;;;4241408;27;20072;-61
2021/08/06 07:14:56;;;;;;;0.80;0.20;;;27.70;92.20;;;;;;4240237;27;20494;-61
2021/08/06 07:16:59;;;;;;;0.45;0.20;;;28.20;91.20;;;;;;4229104;27;20031;-62
2021/08/06 07:19:00;;;;;;;0.20;0.10;;;28.00;90.20;;;;;;4227988;27;20035;-61
2021/08/06 07:21:01;;;;;;;0.40;0.20;;;27.80;89.40;;;;;;4240538;27;20504;-62
2021/08/06 07:23:02;;;;;;;0.20;0.20;;;27.70;88.50;;;;;;4235329;27;20080;-61
2021/08/06 07:25:05;;;;;;;3.40;0.30;;;27.80;88.40;;;;;;4222577;28;20558;-61
2021/08/06 07:27:06;;;;;;;2.88;0.30;;;27.90;87.10;;;;;;4222947;28;20039;-61
2021/08/06 07:29:08;;;;;;;6.10;0.50;;;28.20;86.60;;;;;;4222631;28;20024;-61
2021/08/06 07:31:09;;;;;;;3.95;2.30;;;28.50;85.50;;;;;;4222862;28;20148;-62
2021/08/06 07:33:10;;;;;;;6.75;2.30;;;28.30;84.00;;;;;;4221869;28;20040;-60
2021/08/06 07:35:12;;;;;;;1.98;0.22;;;27.90;83.30;;;;;;4223181;28;20549;-62
2021/08/06 07:37:13;;;;;;;0.32;0.13;;;27.90;83.60;;;;;;4222392;28;20367;-60
2021/08/06 07:39:14;;;;;;;3.10;0.20;;;27.80;83.60;;;;;;4223328;27;20096;-60
2021/08/06 07:41:15;;;;;;;0.10;0.10;;;27.80;83.20;;;;;;4222440;28;20132;-60
2021/08/06 07:43:16;;;;;;;0.10;0.10;;;27.80;83.00;;;;;;4222644;28;20069;-60
2021/08/06 07:45:18;;;;;;;0.50;0.20;;;27.90;82.80;;;;;;4222582;28;20032;-60
2021/08/06 07:47:19;;;;;;;0.88;0.20;;;27.80;81.40;;;;;;4230557;27;20096;-60
2021/08/06 07:49:20;;;;;;;1.80;0.13;;;27.40;80.10;;;;;;4238997;27;20035;-60
2021/08/06 07:51:21;;;;;;;1.13;0.30;;;27.10;80.20;;;;;;4239912;27;20905;-63
2021/08/06 07:53:23;;;;;;;0.30;0.10;;;26.60;80.40;;;;;;4239604;27;20035;-63
2021/08/06 07:55:24;;;;;;;0.20;0.10;;;26.00;80.50;;;;;;4239429;27;20744;-60
2021/08/06 07:57:25;;;;;;;2.20;0.25;;;25.60;81.20;;;;;;4239731;27;20115;-59
2021/08/06 07:59:26;;;;;;;0.20;0.08;;;25.40;81.90;;;;;;4239542;27;20039;-61
2021/08/06 08:01:27;;;;;;;0.75;0.20;;;25.20;82.10;;;;;;4239506;27;20027;-60
2021/08/06 08:03:28;;;;;;;0.68;0.00;;;25.00;82.30;;;;;;4239587;27;20027;-59
2021/08/06 08:05:29;;;;;;;3.60;0.50;;;24.80;82.40;;;;;;4239956;27;20060;-60
2021/08/06 08:07:31;;;;;;;4.75;0.20;;;24.80;82.60;;;;;;4237869;27;20043;-59
2021/08/06 08:09:32;;;;;;;0.65;0.10;;;24.70;82.80;;;;;;4237221;27;20039;-60
2021/08/06 08:11:33;;;;;;;1.23;0.20;;;24.90;82.70;;;;;;4221344;28;20487;-60
2021/08/06 08:13:34;;;;;;;0.45;0.05;;;25.20;82.40;;;;;;4236192;27;20100;-60
2021/08/06 08:15:38;;;;;;;2.65;0.15;;;25.50;81.90;;;;;;4238062;27;20428;-60
2021/08/06 08:17:40;;;;;;;1.45;0.10;;;25.90;81.60;;;;;;4239299;27;20053;-61
2021/08/06 08:19:41;;;;;;;0.38;0.17;;;26.10;80.60;;;;;;4227472;27;20043;-60
2021/08/06 08:21:42;;;;;;;0.20;0.10;;;26.30;80.80;;;;;;4222191;28;20104;-60
2021/08/06 08:23:44;;;;;;;1.00;0.30;;;26.30;80.00;;;;;;4221715;28;20555;-60
2021/08/06 08:25:49;;;;;;;1.58;0.10;;;26.30;79.80;;;;;;4222196;28;20077;-59
2021/08/06 08:27:50;;;;;;;0.75;0.75;;;26.30;79.70;;;;;;4222365;28;20084;-56
2021/08/06 08:29:51;;;;;;;0.22;0.05;;;26.30;79.80;;;;;;4225192;27;20088;-59
2021/08/06 08:31:52;;;;;;;0.10;0.10;;;26.30;79.40;;;;;;4222078;28;20434;-60
2021/08/06 08:33:53;;;;;;;0.17;0.13;;;26.30;78.90;;;;;;4221358;28;20085;-60
2021/08/06 08:35:54;;;;;;;0.40;0.13;;;26.40;78.80;;;;;;4222502;28;20557;-60
2021/08/06 08:37:56;;;;;;;1.48;0.70;;;26.40;78.50;;;;;;4221615;28;20116;-60
2021/08/06 08:39:57;;;;;;;0.15;0.10;;;26.30;78.30;;;;;;4238153;27;20038;-59
2021/08/06 08:42:02;;;;;;;0.68;0.43;;;26.30;78.30;;;;;;4238241;28;20027;-60
2021/08/06 08:44:04;;;;;;;1.20;0.10;;;26.40;78.30;;;;;;4237369;28;20043;-60
2021/08/06 08:46:05;;;;;;;3.10;0.20;;;26.50;78.30;;;;;;4238558;28;20064;-60
2021/08/06 08:48:12;;;;;;;0.30;0.30;;;26.20;78.00;;;;;;4239585;28;20064;-60
2021/08/06 08:50:14;;;;;;;3.33;0.30;;;26.20;77.10;;;;;;4238803;28;20031;-61
2021/08/06 08:52:15;;;;;;;0.20;0.03;;;26.10;77.70;;;;;;4239644;27;20077;-60
2021/08/06 08:54:17;;;;;;;0.55;0.10;;;26.20;77.80;;;;;;4236452;27;20039;-60
2021/08/06 08:56:18;;;;;;;0.30;0.13;;;26.20;77.50;;;;;;4224550;28;20039;-60
2021/08/06 08:58:19;;;;;;;0.38;0.10;;;26.40;77.60;;;;;;4224732;28;20081;-60
2021/08/06 09:00:20;;;;;;;0.30;0.30;;;26.60;77.20;;;;;;4225573;28;20031;-61
2021/08/06 09:02:24;;;;;;;0.70;0.20;;;26.60;76.80;;;;;;4225527;27;20048;-60
2021/08/06 09:04:28;;;;;;;0.28;0.10;;;26.40;76.60;;;;;;4224719;28;20089;-60
2021/08/06 09:06:43;;;;;;;1.30;0.82;;;26.60;77.10;;;;;;4230462;27;20070;-60
2021/08/06 09:08:45;;;;;;;0.40;0.28;;;26.80;76.60;;;;;;4236800;27;20031;-60
2021/08/06 09:10:46;;;;;;;0.40;0.30;;;27.00;76.90;;;;;;4224325;28;20043;-60
2021/08/06 09:12:57;;;;;;;0.10;0.10;;;27.20;76.40;;;;;;4223146;28;20061;-61
2021/08/06 09:14:58;;;;;;;0.30;0.15;;;27.10;75.70;;;;;;4225059;28;20024;-61
2021/08/06 09:17:12;;;;;;;0.40;0.20;;;26.90;76.00;;;;;;4223652;27;20826;-62
2021/08/06 09:19:13;;;;;;;0.10;0.10;;;27.00;75.60;;;;;;4232190;27;20076;-62
2021/08/06 09:21:14;;;;;;;0.10;0.10;;;26.90;75.70;;;;;;4241871;27;20027;-61
2021/08/06 09:23:47;;;;;;;2.58;0.40;;;26.30;75.10;;;;;;4242796;27;20047;-60
2021/08/06 09:25:48;;;;;;;0.20;0.10;;;25.90;74.60;;;;;;4241887;27;20042;-60
2021/08/06 09:28:01;;;;;;;3.30;0.25;;;25.80;76.50;;;;;;4241545;27;20051;-59
2021/08/06 09:30:12;;;;;;;0.10;0.10;;;25.90;76.50;;;;;;4240106;27;20027;-60
2021/08/06 09:32:13;;;;;;;0.22;0.20;;;25.90;76.40;;;;;;4224878;28;20059;-60
2021/08/06 09:34:17;;;;;;;0.28;0.15;;;25.80;76.40;;;;;;4224620;28;20541;-60
2021/08/06 09:36:19;;;;;;;0.20;0.20;;;25.80;76.40;;;;;;4225608;28;20410;-59
2021/08/06 09:38:20;;;;;;;0.10;0.08;;;25.70;76.50;;;;;;4227562;27;20551;-63
2021/08/06 09:40:27;;;;;;;1.13;0.10;;;25.70;76.10;;;;;;4241648;27;20027;-61
2021/08/06 09:42:39;;;;;;;0.30;0.10;;;25.60;75.40;;;;;;4240613;27;20035;-60
2021/08/06 09:44:40;;;;;;;0.50;0.10;;;25.80;75.50;;;;;;4238252;27;20035;-60
2021/08/06 09:46:41;;;;;;;0.50;0.10;;;26.00;75.20;;;;;;4223309;28;20446;-60
2021/08/06 09:48:43;;;;;;;0.60;0.20;;;26.00;75.10;;;;;;4224768;28;20036;-61
2021/08/06 09:50:46;;;;;;;0.40;0.20;;;26.00;75.30;;;;;;4224244;28;20437;-62
2021/08/06 09:52:50;;;;;;;0.60;0.10;;;26.00;75.20;;;;;;4224886;28;20028;-60
2021/08/06 09:54:52;;;;;;;1.42;0.35;;;25.90;74.90;;;;;;4224067;28;20051;-60
2021/08/06 09:57:05;;;;;;;1.85;0.30;;;25.80;75.10;;;;;;4224581;28;20047;-61
2021/08/06 09:59:06;;;;;;;1.73;0.20;;;25.90;73.70;;;;;;4223915;28;20084;-61
2021/08/06 10:01:19;;;;;;;1.67;0.10;;;26.00;74.70;;;;;;4224219;28;20047;-60
2021/08/06 10:03:35;;;;;;;0.50;0.20;;;26.20;73.90;;;;;;4222779;28;20088;-60
2021/08/06 10:05:36;;;;;;;2.45;0.40;;;26.30;73.30;;;;;;4225773;27;20082;-60
2021/08/06 10:07:46;;;;;;;1.95;0.30;;;26.30;74.10;;;;;;4240291;27;20808;-60
2021/08/06 10:09:47;;;;;;;0.80;0.50;;;26.20;73.20;;;;;;4241448;27;20546;-61
2021/08/06 10:11:49;;;;;;;0.65;0.20;;;26.20;74.10;;;;;;4240816;27;20539;-60
2021/08/06 10:13:50;;;;;;;0.50;0.10;;;26.30;73.90;;;;;;4240839;27;20043;-60
2021/08/06 10:15:51;;;;;;;0.70;0.30;;;26.40;73.70;;;;;;4241326;27;20035;-60
2021/08/06 10:17:54;;;;;;;0.10;0.10;;;26.60;73.60;;;;;;4240726;27;20431;-61
2021/08/06 10:19:55;;;;;;;0.40;0.20;;;26.50;73.20;;;;;;4240770;27;20057;-61
2021/08/06 10:21:57;;;;;;;0.30;0.25;;;26.20;73.70;;;;;;4240740;27;20084;-61
2021/08/06 10:23:59;;;;;;;0.65;0.20;;;26.00;73.10;;;;;;4235448;27;20037;-61
2021/08/06 10:26:01;;;;;;;0.30;0.20;;;25.90;73.00;;;;;;4223948;28;20089;-61
2021/08/06 10:28:04;;;;;;;1.98;0.28;;;25.90;73.30;;;;;;4225955;28;20104;-60
2021/08/06 10:30:07;;;;;;;2.17;0.20;;;25.70;72.70;;;;;;4222311;28;20032;-61
2021/08/06 10:32:11;;;;;;;1.20;0.50;;;25.70;72.90;;;;;;4224283;28;20084;-61
2021/08/06 10:34:13;;;;;;;1.55;0.28;;;25.70;73.30;;;;;;4217094;27;20090;-61
2021/08/06 10:36:37;;;;;;;2.40;0.20;;;25.80;73.50;;;;;;4207105;28;20037;-61